EST,Max TemperatureF,Mean TemperatureF,Min TemperatureF,Max Dew PointF,MeanDew PointF,Min DewpointF,Max Humidity, Mean Humidity, Min Humidity, Max Sea Level PressureIn, Mean Sea Level PressureIn, Min Sea Level PressureIn, Max VisibilityMiles, Mean VisibilityMiles, Min VisibilityMiles, Max Wind SpeedMPH, Mean Wind SpeedMPH, Max Gust SpeedMPH,PrecipitationIn, CloudCover, Events, WindDirDegrees
2014-2-1,57,46,35,45,36,30,93,68,47,30.03,29.93,29.83,10,9,1,25,9,31,0.12,7,,185
2014-2-2,37,32,28,36,28,21,93,85,74,30.23,30.13,29.95,10,7,2,15,10,21,0.26,6,,351
2014-2-3,35,28,21,23,20,18,86,71,56,30.35,30.28,30.16,10,10,10,13,8,18,0.00,0,,357
2014-2-4,32,28,24,28,23,18,93,79,60,30.33,30.14,29.79,10,7,0,22,6,29,0.69,3,,51
2014-2-5,30,26,21,28,22,16,93,83,74,30.46,30.12,29.78,10,7,1,0,0,,0.25,8,,-1
2014-2-6,21,14,6,16,8,-2,86,75,62,30.55,30.49,30.45,10,9,3,12,3,,0.00,3,,327
2014-2-7,17,9,1,7,1,-6,85,69,49,30.53,30.46,30.36,10,10,10,7,3,,0.00,0,,349
2014-2-8,28,21,14,27,17,5,93,80,67,30.37,30.25,30.16,10,8,2,10,5,,0.00,4,,136
2014-2-9,30,24,19,27,21,12,93,78,59,30.30,30.19,30.11,10,7,1,14,5,20,0.00,3,,324
2014-2-10,19,12,6,12,4,-4,79,65,53,30.43,30.37,30.29,10,10,9,13,9,17,0.00,2,,345
2014-2-11,23,12,1,9,0,-6,72,61,46,30.50,30.43,30.37,10,10,10,10,8,,0.00,0,,15
2014-2-12,35,22,10,18,10,1,79,64,48,30.36,30.17,30.02,10,10,10,9,6,,0.00,0,,14
2014-2-13,37,26,14,19,15,9,79,61,45,30.01,29.87,29.73,10,9,5,13,4,,0.00,0,,227
2014-2-14,35,26,17,30,23,10,93,80,60,29.94,29.75,29.62,10,7,0,21,8,31,0.08,3,,302
2014-2-15,26,16,6,21,12,1,86,76,64,30.21,30.10,29.95,10,9,2,14,9,20,0.00,2,,240
2014-2-16,33,26,19,25,21,14,86,74,64,30.27,30.14,29.99,10,10,7,12,6,,0.00,4,,311
2014-2-17,39,29,19,37,26,16,93,78,65,30.25,30.03,29.75,10,8,2,26,11,33,0.41,3,Thunderstorm,153
2014-2-18,51,42,32,34,29,25,81,60,46,30.13,30.00,29.82,10,10,10,15,10,,0.00,0,,191
2014-2-19,53,46,39,41,34,28,87,65,38,30.05,29.95,29.78,10,10,10,13,8,,0.00,0,,226
2014-2-20,66,52,39,55,46,28,82,71,57,29.94,29.70,29.52,10,10,8,33,14,46,0.17,5,Thunderstorm,178
2014-2-21,48,42,35,30,25,19,75,54,34,30.00,29.91,29.77,10,10,10,28,14,33,0.17,0,,230
2014-2-22,60,46,33,34,27,21,65,47,31,30.09,30.00,29.92,10,10,10,20,9,18,0.00,0,,201
2014-2-23,41,34,26,34,26,12,87,69,52,30.27,30.13,30.01,10,10,5,15,10,22,0.00,2,,6
2014-2-24,37,29,21,18,15,12,86,59,38,30.38,30.30,30.22,10,10,10,13,6,,0.00,1,,333
2014-2-25,35,28,24,19,17,12,80,60,51,30.25,30.21,30.18,10,10,3,14,8,18,0.00,6,,346
2014-2-26,26,18,12,18,6,1,74,57,40,30.28,30.15,29.98,10,10,6,22,13,28,0.00,1,,304
2014-2-27,28,22,17,14,6,0,68,50,31,30.17,30.04,29.90,10,10,10,22,10,30,0.00,0,,315
2014-2-28,42,28,15,12,7,3,62,43,25,30.21,30.12,30.03,10,10,10,13,8,16,0.00,0,,107